sensor_id;sensor_type;location;lat;lon;timestamp;pressure;altitude;pressure_sealevel;temperature;humidity
20628;BME280;10473;42.734;24.258;2023-03-22T00:01:24;91448.94;;;10.04;78.43
20628;BME280;10473;42.734;24.258;2023-03-22T00:03:53;91451.28;;;10.09;78.27
20628;BME280;10473;42.734;24.258;2023-03-22T00:06:21;91445.97;;;10.12;78.57
20628;BME280;10473;42.734;24.258;2023-03-22T00:08:51;91444.09;;;10.13;78.03
20628;BME280;10473;42.734;24.258;2023-03-22T00:11:21;91454.28;;;10.11;78.28
20628;BME280;10473;42.734;24.258;2023-03-22T00:13:49;91448.28;;;10.21;77.79
20628;BME280;10473;42.734;24.258;2023-03-22T00:16:18;91450.56;;;10.22;77.55
20628;BME280;10473;42.734;24.258;2023-03-22T00:18:46;91445.91;;;9.98;78.66
20628;BME280;10473;42.734;24.258;2023-03-22T00:21:15;91446.41;;;10.18;78.22
20628;BME280;10473;42.734;24.258;2023-03-22T00:23:43;91440.75;;;10.26;77.50
20628;BME280;10473;42.734;24.258;2023-03-22T00:26:13;91443.69;;;10.11;78.59
20628;BME280;10473;42.734;24.258;2023-03-22T00:28:42;91445.25;;;10.15;78.74
20628;BME280;10473;42.734;24.258;2023-03-22T00:31:10;91448.63;;;10.09;78.31
20628;BME280;10473;42.734;24.258;2023-03-22T00:33:38;91446.66;;;9.95;78.83
20628;BME280;10473;42.734;24.258;2023-03-22T00:36:07;91440.59;;;9.95;79.05
20628;BME280;10473;42.734;24.258;2023-03-22T00:38:35;91432.94;;;9.79;79.81
20628;BME280;10473;42.734;24.258;2023-03-22T00:41:05;91431.41;;;9.68;80.64
20628;BME280;10473;42.734;24.258;2023-03-22T00:43:34;91435.28;;;9.88;79.34
20628;BME280;10473;42.734;24.258;2023-03-22T00:46:03;91423.84;;;9.73;79.80
20628;BME280;10473;42.734;24.258;2023-03-22T00:48:31;91423.50;;;9.75;80.29
20628;BME280;10473;42.734;24.258;2023-03-22T00:50:59;91423.56;;;9.85;79.82
20628;BME280;10473;42.734;24.258;2023-03-22T00:53:30;91417.88;;;9.87;79.84
20628;BME280;10473;42.734;24.258;2023-03-22T00:56:00;91418.56;;;9.70;81.24
20628;BME280;10473;42.734;24.258;2023-03-22T00:58:36;91421.63;;;9.75;81.43
20628;BME280;10473;42.734;24.258;2023-03-22T01:01:04;91416.09;;;9.37;82.77
20628;BME280;10473;42.734;24.258;2023-03-22T01:03:32;91420.03;;;9.60;82.60
20628;BME280;10473;42.734;24.258;2023-03-22T01:06:00;91417.41;;;9.71;81.76
20628;BME280;10473;42.734;24.258;2023-03-22T01:08:28;91406.66;;;9.32;83.54
20628;BME280;10473;42.734;24.258;2023-03-22T01:10:58;91404.19;;;9.64;82.82
20628;BME280;10473;42.734;24.258;2023-03-22T01:13:26;91401.19;;;9.76;81.90
20628;BME280;10473;42.734;24.258;2023-03-22T01:15:56;91401.19;;;9.76;81.93
20628;BME280;10473;42.734;24.258;2023-03-22T01:18:23;91403.13;;;9.86;81.14
20628;BME280;10473;42.734;24.258;2023-03-22T01:20:51;91397.75;;;9.65;81.60
20628;BME280;10473;42.734;24.258;2023-03-22T01:23:20;91393.63;;;9.74;81.82
20628;BME280;10473;42.734;24.258;2023-03-22T01:25:47;91393.66;;;9.78;81.47
20628;BME280;10473;42.734;24.258;2023-03-22T01:28:15;91396.59;;;9.59;81.85
20628;BME280;10473;42.734;24.258;2023-03-22T01:30:43;91389.09;;;9.75;81.41
20628;BME280;10473;42.734;24.258;2023-03-22T01:33:12;91386.81;;;9.70;80.94
20628;BME280;10473;42.734;24.258;2023-03-22T01:35:39;91395.00;;;9.44;81.42
20628;BME280;10473;42.734;24.258;2023-03-22T01:38:09;91395.03;;;9.47;77.98
20628;BME280;10473;42.734;24.258;2023-03-22T01:40:43;91394.94;;;9.37;79.57
20628;BME280;10473;42.734;24.258;2023-03-22T01:43:13;91389.31;;;9.45;81.03
20628;BME280;10473;42.734;24.258;2023-03-22T01:45:45;91391.31;;;9.59;80.84
20628;BME280;10473;42.734;24.258;2023-03-22T01:48:25;91394.25;;;9.47;81.22
20628;BME280;10473;42.734;24.258;2023-03-22T01:51:01;91390.53;;;9.62;81.11
20628;BME280;10473;42.734;24.258;2023-03-22T01:53:39;91387.19;;;9.72;79.94
20628;BME280;10473;42.734;24.258;2023-03-22T01:56:09;91391.75;;;9.75;79.62
20628;BME280;10473;42.734;24.258;2023-03-22T01:58:38;91385.69;;;9.71;79.51
20628;BME280;10473;42.734;24.258;2023-03-22T02:01:09;91393.25;;;9.76;80.18
20628;BME280;10473;42.734;24.258;2023-03-22T02:03:50;91400.47;;;9.86;79.83
20628;BME280;10473;42.734;24.258;2023-03-22T02:06:20;91394.75;;;9.66;79.89
20628;BME280;10473;42.734;24.258;2023-03-22T02:08:56;91400.09;;;9.84;79.94
20628;BME280;10473;42.734;24.258;2023-03-22T02:11:28;91395.19;;;9.82;80.70
20628;BME280;10473;42.734;24.258;2023-03-22T02:17:26;91401.63;;;9.88;80.38
20628;BME280;10473;42.734;24.258;2023-03-22T02:23:35;91391.38;;;9.76;80.84
20628;BME280;10473;42.734;24.258;2023-03-22T02:26:43;91395.88;;;9.69;80.08
20628;BME280;10473;42.734;24.258;2023-03-22T02:29:24;91401.19;;;9.69;79.92
20628;BME280;10473;42.734;24.258;2023-03-22T02:35:14;91411.75;;;9.69;80.18
20628;BME280;10473;42.734;24.258;2023-03-22T02:38:18;91407.25;;;9.76;80.53
20628;BME280;10473;42.734;24.258;2023-03-22T02:40:52;91408.03;;;9.80;80.28
20628;BME280;10473;42.734;24.258;2023-03-22T02:43:28;91412.50;;;9.69;80.54
20628;BME280;10473;42.734;24.258;2023-03-22T02:46:07;91415.94;;;9.77;80.82
20628;BME280;10473;42.734;24.258;2023-03-22T02:48:40;91413.28;;;9.77;80.37
20628;BME280;10473;42.734;24.258;2023-03-22T02:51:11;91420.91;;;9.85;80.22
20628;BME280;10473;42.734;24.258;2023-03-22T02:53:46;91416.78;;;9.95;79.82
20628;BME280;10473;42.734;24.258;2023-03-22T02:56:19;91423.56;;;9.96;79.61
20628;BME280;10473;42.734;24.258;2023-03-22T02:58:51;91422.41;;;9.83;80.57
20628;BME280;10473;42.734;24.258;2023-03-22T03:01:23;91428.50;;;9.90;80.49
20628;BME280;10473;42.734;24.258;2023-03-22T03:03:55;91428.44;;;9.87;79.99
20628;BME280;10473;42.734;24.258;2023-03-22T03:06:27;91429.59;;;9.86;80.04
20628;BME280;10473;42.734;24.258;2023-03-22T03:08:56;91432.28;;;9.96;80.06
20628;BME280;10473;42.734;24.258;2023-03-22T03:11:32;91431.34;;;9.57;81.13
20628;BME280;10473;42.734;24.258;2023-03-22T03:14:00;91429.91;;;9.74;81.15
20628;BME280;10473;42.734;24.258;2023-03-22T03:16:29;91434.06;;;9.75;80.85
20628;BME280;10473;42.734;24.258;2023-03-22T03:19:06;91431.78;;;9.70;80.98
20628;BME280;10473;42.734;24.258;2023-03-22T03:21:42;91427.97;;;9.64;81.35
20628;BME280;10473;42.734;24.258;2023-03-22T03:24:20;91421.19;;;9.63;80.94
20628;BME280;10473;42.734;24.258;2023-03-22T03:26:57;91424.56;;;9.60;81.46
20628;BME280;10473;42.734;24.258;2023-03-22T03:29:32;91421.19;;;9.63;80.90
20628;BME280;10473;42.734;24.258;2023-03-22T03:32:08;91426.06;;;9.61;81.25
20628;BME280;10473;42.734;24.258;2023-03-22T03:34:41;91428.34;;;9.62;81.52
20628;BME280;10473;42.734;24.258;2023-03-22T03:37:18;91430.19;;;9.55;82.15
20628;BME280;10473;42.734;24.258;2023-03-22T03:39:50;91423.41;;;9.61;81.83
20628;BME280;10473;42.734;24.258;2023-03-22T03:42:24;91426.34;;;9.45;82.25
20628;BME280;10473;42.734;24.258;2023-03-22T03:44:54;91418.34;;;9.31;83.50
20628;BME280;10473;42.734;24.258;2023-03-22T03:47:23;91423.75;;;9.49;82.65
20628;BME280;10473;42.734;24.258;2023-03-22T03:49:51;91428.59;;;9.43;82.61
20628;BME280;10473;42.734;24.258;2023-03-22T03:52:19;91431.00;;;9.05;85.17
20628;BME280;10473;42.734;24.258;2023-03-22T03:54:50;91433.44;;;9.31;84.10
20628;BME280;10473;42.734;24.258;2023-03-22T03:57:27;91432.88;;;9.08;84.84
20628;BME280;10473;42.734;24.258;2023-03-22T03:59:55;91431.81;;;9.16;85.35
20628;BME280;10473;42.734;24.258;2023-03-22T04:02:43;91430.03;;;9.30;84.38
20628;BME280;10473;42.734;24.258;2023-03-22T04:05:27;91442.94;;;9.39;83.35
20628;BME280;10473;42.734;24.258;2023-03-22T04:07:54;91448.59;;;9.37;83.46
20628;BME280;10473;42.734;24.258;2023-03-22T04:10:22;91443.69;;;9.43;83.40
20628;BME280;10473;42.734;24.258;2023-03-22T04:12:51;91450.19;;;9.49;83.01
20628;BME280;10473;42.734;24.258;2023-03-22T04:15:20;91449.38;;;9.41;83.52
20628;BME280;10473;42.734;24.258;2023-03-22T04:17:53;91450.13;;;9.45;83.23
20628;BME280;10473;42.734;24.258;2023-03-22T04:20:23;91453.56;;;9.46;82.74
20628;BME280;10473;42.734;24.258;2023-03-22T04:22:52;91450.19;;;9.49;82.87
20628;BME280;10473;42.734;24.258;2023-03-22T04:25:20;91452.03;;;9.45;82.50
20628;BME280;10473;42.734;24.258;2023-03-22T04:28:00;91459.22;;;9.48;82.69
20628;BME280;10473;42.734;24.258;2023-03-22T04:30:31;91460.69;;;9.42;83.14
20628;BME280;10473;42.734;24.258;2023-03-22T04:33:01;91456.91;;;9.43;83.40
20628;BME280;10473;42.734;24.258;2023-03-22T04:36:01;91459.19;;;9.44;83.15
20628;BME280;10473;42.734;24.258;2023-03-22T04:38:37;91454.69;;;9.45;83.03
20628;BME280;10473;42.734;24.258;2023-03-22T04:41:07;91464.84;;;9.39;83.21
20628;BME280;10473;42.734;24.258;2023-03-22T04:43:41;91455.50;;;9.52;83.05
20628;BME280;10473;42.734;24.258;2023-03-22T04:46:14;91462.66;;;9.52;82.71
20628;BME280;10473;42.734;24.258;2023-03-22T04:48:50;91466.63;;;9.21;84.53
20628;BME280;10473;42.734;24.258;2023-03-22T04:51:18;91474.59;;;9.32;84.15
20628;BME280;10473;42.734;24.258;2023-03-22T04:54:00;91476.19;;;9.40;83.53
20628;BME280;10473;42.734;24.258;2023-03-22T04:56:28;91473.81;;;9.28;83.98
20628;BME280;10473;42.734;24.258;2023-03-22T04:58:57;91481.84;;;9.42;83.77
20628;BME280;10473;42.734;24.258;2023-03-22T05:01:27;91479.28;;;9.49;82.98
20628;BME280;10473;42.734;24.258;2023-03-22T05:04:20;91479.41;;;9.16;83.99
20628;BME280;10473;42.734;24.258;2023-03-22T05:06:54;91482.50;;;9.28;84.30
20628;BME280;10473;42.734;24.258;2023-03-22T05:09:28;91486.34;;;9.38;83.87
20628;BME280;10473;42.734;24.258;2023-03-22T05:11:57;91483.69;;;9.34;83.28
20628;BME280;10473;42.734;24.258;2023-03-22T05:14:38;91489.34;;;9.33;84.23
20628;BME280;10473;42.734;24.258;2023-03-22T05:17:07;91487.13;;;9.42;83.28
20628;BME280;10473;42.734;24.258;2023-03-22T05:19:36;91496.22;;;9.44;82.93
20628;BME280;10473;42.734;24.258;2023-03-22T05:22:04;91488.56;;;9.29;84.00
20628;BME280;10473;42.734;24.258;2023-03-22T05:24:45;91493.13;;;9.35;84.06
20628;BME280;10473;42.734;24.258;2023-03-22T05:27:18;91499.91;;;9.33;84.19
20628;BME280;10473;42.734;24.258;2023-03-22T05:30:00;91492.38;;;9.35;84.04
20628;BME280;10473;42.734;24.258;2023-03-22T05:32:41;91502.88;;;9.28;84.28
20628;BME280;10473;42.734;24.258;2023-03-22T05:35:11;91503.97;;;9.20;84.55
20628;BME280;10473;42.734;24.258;2023-03-22T05:37:44;91495.00;;;9.31;84.39
20628;BME280;10473;42.734;24.258;2023-03-22T05:40:14;91510.78;;;9.21;84.38
20628;BME280;10473;42.734;24.258;2023-03-22T05:42:43;91510.44;;;9.26;85.71
20628;BME280;10473;42.734;24.258;2023-03-22T05:45:18;91510.13;;;9.38;84.73
20628;BME280;10473;42.734;24.258;2023-03-22T05:47:54;91511.69;;;9.42;84.64
20628;BME280;10473;42.734;24.258;2023-03-22T05:50:22;91513.25;;;9.50;83.57
20628;BME280;10473;42.734;24.258;2023-03-22T05:52:50;91518.97;;;9.56;83.30
20628;BME280;10473;42.734;24.258;2023-03-22T05:55:47;91520.13;;;9.58;83.01
20628;BME280;10473;42.734;24.258;2023-03-22T05:58:15;91523.53;;;9.59;82.62
20628;BME280;10473;42.734;24.258;2023-03-22T06:00:47;91530.22;;;9.42;83.20
20628;BME280;10473;42.734;24.258;2023-03-22T06:03:19;91530.31;;;9.56;83.45
20628;BME280;10473;42.734;24.258;2023-03-22T06:05:55;91532.22;;;9.59;83.34
20628;BME280;10473;42.734;24.258;2023-03-22T06:08:35;91531.81;;;9.54;83.09
20628;BME280;10473;42.734;24.258;2023-03-22T06:11:04;91540.59;;;9.72;82.44
20628;BME280;10473;42.734;24.258;2023-03-22T06:13:32;91535.66;;;9.67;82.06
20628;BME280;10473;42.734;24.258;2023-03-22T06:16:26;91538.69;;;9.65;82.43
20628;BME280;10473;42.734;24.258;2023-03-22T06:18:54;91549.22;;;9.62;83.10
20628;BME280;10473;42.734;24.258;2023-03-22T06:21:22;91545.88;;;9.65;82.79
20628;BME280;10473;42.734;24.258;2023-03-22T06:23:50;91550.78;;;9.63;82.22
20628;BME280;10473;42.734;24.258;2023-03-22T06:26:18;91548.53;;;9.68;82.14
20628;BME280;10473;42.734;24.258;2023-03-22T06:28:46;91558.28;;;9.61;82.65
20628;BME280;10473;42.734;24.258;2023-03-22T06:31:14;91556.38;;;9.58;83.19
20628;BME280;10473;42.734;24.258;2023-03-22T06:33:53;91559.34;;;9.53;83.30
20628;BME280;10473;42.734;24.258;2023-03-22T06:36:33;91555.91;;;9.45;83.29
20628;BME280;10473;42.734;24.258;2023-03-22T06:39:08;91559.78;;;9.55;83.44
20628;BME280;10473;42.734;24.258;2023-03-22T06:41:35;91566.56;;;9.52;82.97
20628;BME280;10473;42.734;24.258;2023-03-22T06:44:04;91570.69;;;9.50;83.05
20628;BME280;10473;42.734;24.258;2023-03-22T06:46:56;91571.06;;;9.52;82.58
20628;BME280;10473;42.734;24.258;2023-03-22T06:49:49;91577.13;;;9.52;82.69
20628;BME280;10473;42.734;24.258;2023-03-22T06:52:25;91578.66;;;9.57;82.76
20628;BME280;10473;42.734;24.258;2023-03-22T06:54:53;91575.31;;;9.63;83.07
20628;BME280;10473;42.734;24.258;2023-03-22T06:57:22;91584.03;;;9.64;82.96
20628;BME280;10473;42.734;24.258;2023-03-22T06:59:49;91588.44;;;9.53;82.92
20628;BME280;10473;42.734;24.258;2023-03-22T07:02:17;91587.38;;;9.61;82.13
20628;BME280;10473;42.734;24.258;2023-03-22T07:05:07;91593.94;;;9.74;82.00
20628;BME280;10473;42.734;24.258;2023-03-22T07:07:35;91589.78;;;9.73;81.80
20628;BME280;10473;42.734;24.258;2023-03-22T07:10:04;91603.75;;;9.73;82.41
20628;BME280;10473;42.734;24.258;2023-03-22T07:12:33;91601.88;;;9.74;82.47
20628;BME280;10473;42.734;24.258;2023-03-22T07:15:07;91605.91;;;9.61;83.00
20628;BME280;10473;42.734;24.258;2023-03-22T07:17:56;91605.03;;;9.46;83.05
20628;BME280;10473;42.734;24.258;2023-03-22T07:20:25;91619.09;;;9.14;84.20
20628;BME280;10473;42.734;24.258;2023-03-22T07:22:55;91613.97;;;8.95;80.27
20628;BME280;10473;42.734;24.258;2023-03-22T07:25:25;91615.00;;;8.87;78.93
20628;BME280;10473;42.734;24.258;2023-03-22T07:28:01;91626.03;;;8.63;78.44
20628;BME280;10473;42.734;24.258;2023-03-22T07:30:30;91625.63;;;8.57;77.89
20628;BME280;10473;42.734;24.258;2023-03-22T07:33:01;91623.53;;;8.44;77.70
20628;BME280;10473;42.734;24.258;2023-03-22T07:35:30;91636.72;;;8.44;77.94
20628;BME280;10473;42.734;24.258;2023-03-22T07:37:58;91626.50;;;8.39;78.31
20628;BME280;10473;42.734;24.258;2023-03-22T07:40:30;91634.19;;;8.51;77.69
20628;BME280;10473;42.734;24.258;2023-03-22T07:42:58;91643.41;;;8.64;78.07
20628;BME280;10473;42.734;24.258;2023-03-22T07:45:47;91631.94;;;8.53;80.12
20628;BME280;10473;42.734;24.258;2023-03-22T07:48:35;91638.88;;;8.64;79.33
20628;BME280;10473;42.734;24.258;2023-03-22T07:51:24;91637.63;;;8.84;79.41
20628;BME280;10473;42.734;24.258;2023-03-22T07:53:52;91642.13;;;8.84;79.20
20628;BME280;10473;42.734;24.258;2023-03-22T07:56:19;91642.34;;;9.01;78.90
20628;BME280;10473;42.734;24.258;2023-03-22T07:58:47;91641.00;;;9.18;76.82
20628;BME280;10473;42.734;24.258;2023-03-22T08:01:16;91638.44;;;9.25;75.26
20628;BME280;10473;42.734;24.258;2023-03-22T08:04:14;91638.16;;;9.33;75.58
20628;BME280;10473;42.734;24.258;2023-03-22T08:07:03;91642.41;;;9.45;75.66
20628;BME280;10473;42.734;24.258;2023-03-22T08:09:37;91645.56;;;9.57;72.79
20628;BME280;10473;42.734;24.258;2023-03-22T08:12:05;91643.69;;;9.61;70.94
20628;BME280;10473;42.734;24.258;2023-03-22T08:14:34;91639.56;;;9.64;72.79
20628;BME280;10473;42.734;24.258;2023-03-22T08:17:04;91639.53;;;9.60;73.47
20628;BME280;10473;42.734;24.258;2023-03-22T08:19:33;91641.88;;;9.69;73.86
20628;BME280;10473;42.734;24.258;2023-03-22T08:22:02;91640.78;;;9.77;72.55
20628;BME280;10473;42.734;24.258;2023-03-22T08:24:50;91647.22;;;9.76;71.91
20628;BME280;10473;42.734;24.258;2023-03-22T08:27:30;91641.66;;;9.88;71.05
20628;BME280;10473;42.734;24.258;2023-03-22T08:29:59;91641.38;;;10.00;69.95
20628;BME280;10473;42.734;24.258;2023-03-22T08:32:27;91644.50;;;10.09;69.54
20628;BME280;10473;42.734;24.258;2023-03-22T08:34:55;91643.22;;;9.96;70.51
20628;BME280;10473;42.734;24.258;2023-03-22T08:37:24;91645.63;;;10.08;70.29
20628;BME280;10473;42.734;24.258;2023-03-22T08:39:52;91653.59;;;10.15;69.44
20628;BME280;10473;42.734;24.258;2023-03-22T08:42:24;91653.94;;;10.06;70.23
20628;BME280;10473;42.734;24.258;2023-03-22T08:44:52;91659.22;;;10.06;70.02
20628;BME280;10473;42.734;24.258;2023-03-22T08:47:22;91653.22;;;10.13;69.36
20628;BME280;10473;42.734;24.258;2023-03-22T08:49:54;91665.66;;;10.09;68.86
20628;BME280;10473;42.734;24.258;2023-03-22T08:52:31;91665.25;;;10.07;70.23
20628;BME280;10473;42.734;24.258;2023-03-22T08:55:07;91658.00;;;10.00;70.29
20628;BME280;10473;42.734;24.258;2023-03-22T08:57:53;91661.03;;;9.99;70.91
20628;BME280;10473;42.734;24.258;2023-03-22T09:00:56;91666.69;;;10.01;70.82
20628;BME280;10473;42.734;24.258;2023-03-22T09:03:40;91669.72;;;9.99;69.67
20628;BME280;10473;42.734;24.258;2023-03-22T09:06:09;91669.75;;;10.03;70.45
20628;BME280;10473;42.734;24.258;2023-03-22T09:08:40;91674.19;;;9.92;72.13
20628;BME280;10473;42.734;24.258;2023-03-22T09:11:12;91674.94;;;9.89;71.84
20628;BME280;10473;42.734;24.258;2023-03-22T09:13:42;91673.44;;;9.91;70.94
20628;BME280;10473;42.734;24.258;2023-03-22T09:16:10;91670.03;;;9.94;70.86
20628;BME280;10473;42.734;24.258;2023-03-22T09:18:38;91668.84;;;9.85;72.03
20628;BME280;10473;42.734;24.258;2023-03-22T09:21:14;91664.94;;;9.72;73.53
20628;BME280;10473;42.734;24.258;2023-03-22T09:24:18;91662.84;;;9.88;73.64
20628;BME280;10473;42.734;24.258;2023-03-22T09:26:51;91666.56;;;9.83;73.49
20628;BME280;10473;42.734;24.258;2023-03-22T09:29:19;91669.31;;;9.97;72.58
20628;BME280;10473;42.734;24.258;2023-03-22T09:31:47;91676.47;;;9.93;71.80
20628;BME280;10473;42.734;24.258;2023-03-22T09:34:22;91667.34;;;9.87;71.20
20628;BME280;10473;42.734;24.258;2023-03-22T09:36:50;91666.44;;;9.69;72.50
20628;BME280;10473;42.734;24.258;2023-03-22T09:39:23;91669.25;;;9.47;73.23
20628;BME280;10473;42.734;24.258;2023-03-22T09:41:56;91660.59;;;9.50;74.36
20628;BME280;10473;42.734;24.258;2023-03-22T09:44:28;91665.38;;;9.77;73.11
20628;BME280;10473;42.734;24.258;2023-03-22T09:46:59;91659.56;;;9.61;73.20
20628;BME280;10473;42.734;24.258;2023-03-22T09:49:33;91665.75;;;9.79;73.68
20628;BME280;10473;42.734;24.258;2023-03-22T09:52:10;91674.97;;;9.96;73.76
20628;BME280;10473;42.734;24.258;2023-03-22T09:54:42;91659.50;;;9.98;74.94
20628;BME280;10473;42.734;24.258;2023-03-22T09:57:19;91673.25;;;10.14;73.78
20628;BME280;10473;42.734;24.258;2023-03-22T09:59:54;91672.13;;;10.11;73.14
20628;BME280;10473;42.734;24.258;2023-03-22T10:02:37;91676.38;;;10.23;71.91
20628;BME280;10473;42.734;24.258;2023-03-22T10:05:21;91683.91;;;10.21;70.26
20628;BME280;10473;42.734;24.258;2023-03-22T10:11:01;91683.09;;;10.17;71.70
20628;BME280;10473;42.734;24.258;2023-03-22T10:13:37;91688.16;;;10.36;71.19
20628;BME280;10473;42.734;24.258;2023-03-22T10:16:10;91686.66;;;10.38;70.38
20628;BME280;10473;42.734;24.258;2023-03-22T10:18:42;91678.69;;;10.31;71.72
20628;BME280;10473;42.734;24.258;2023-03-22T10:21:13;91695.13;;;10.54;71.26
20628;BME280;10473;42.734;24.258;2023-03-22T10:23:44;91689.75;;;10.44;70.58
20628;BME280;10473;42.734;24.258;2023-03-22T10:26:19;91689.78;;;10.51;71.74
20628;BME280;10473;42.734;24.258;2023-03-22T10:28:54;91687.16;;;10.54;70.62
20628;BME280;10473;42.734;24.258;2023-03-22T10:31:25;91687.53;;;10.53;71.00
20628;BME280;10473;42.734;24.258;2023-03-22T10:33:57;91693.25;;;10.62;69.53
20628;BME280;10473;42.734;24.258;2023-03-22T10:36:27;91683.78;;;10.61;69.84
20628;BME280;10473;42.734;24.258;2023-03-22T10:39:03;91686.75;;;10.52;70.81
20628;BME280;10473;42.734;24.258;2023-03-22T10:41:38;91677.66;;;10.50;72.17
20628;BME280;10473;42.734;24.258;2023-03-22T10:44:06;91676.25;;;10.63;71.12
20628;BME280;10473;42.734;24.258;2023-03-22T10:46:37;91676.63;;;10.65;71.12
20628;BME280;10473;42.734;24.258;2023-03-22T10:49:06;91678.19;;;10.73;70.65
20628;BME280;10473;42.734;24.258;2023-03-22T10:51:42;91674.84;;;10.90;69.10
20628;BME280;10473;42.734;24.258;2023-03-22T10:54:14;91679.03;;;10.91;69.57
20628;BME280;10473;42.734;24.258;2023-03-22T10:56:43;91666.16;;;10.93;70.38
20628;BME280;10473;42.734;24.258;2023-03-22T11:02:16;91671.88;;;10.98;70.55
20628;BME280;10473;42.734;24.258;2023-03-22T11:04:47;91667.38;;;11.13;69.57
20628;BME280;10473;42.734;24.258;2023-03-22T11:07:26;91663.63;;;11.24;69.66
20628;BME280;10473;42.734;24.258;2023-03-22T11:09:59;91669.28;;;11.16;70.48
20628;BME280;10473;42.734;24.258;2023-03-22T11:12:41;91654.44;;;10.97;69.09
20628;BME280;10473;42.734;24.258;2023-03-22T11:15:38;91673.06;;;11.11;68.64
20628;BME280;10473;42.734;24.258;2023-03-22T11:18:10;91668.13;;;11.10;68.88
20628;BME280;10473;42.734;24.258;2023-03-22T11:20:50;91667.38;;;11.06;68.83
20628;BME280;10473;42.734;24.258;2023-03-22T11:23:19;91660.16;;;11.10;68.89
20628;BME280;10473;42.734;24.258;2023-03-22T11:25:48;91648.41;;;11.00;69.50
20628;BME280;10473;42.734;24.258;2023-03-22T11:28:20;91656.75;;;11.06;69.67
20628;BME280;10473;42.734;24.258;2023-03-22T11:31:01;91650.69;;;11.09;70.25
20628;BME280;10473;42.734;24.258;2023-03-22T11:33:30;91649.16;;;11.01;70.49
20628;BME280;10473;42.734;24.258;2023-03-22T11:35:59;91641.22;;;11.04;69.83
20628;BME280;10473;42.734;24.258;2023-03-22T11:38:29;91649.94;;;11.08;69.52
20628;BME280;10473;42.734;24.258;2023-03-22T11:41:04;91650.69;;;11.05;69.58
20628;BME280;10473;42.734;24.258;2023-03-22T11:43:36;91647.63;;;11.00;70.44
20628;BME280;10473;42.734;24.258;2023-03-22T11:46:06;91646.53;;;11.01;67.80
20628;BME280;10473;42.734;24.258;2023-03-22T11:48:35;91646.47;;;10.87;70.27
20628;BME280;10473;42.734;24.258;2023-03-22T11:51:06;91641.59;;;11.03;71.78
20628;BME280;10473;42.734;24.258;2023-03-22T11:53:42;91639.31;;;11.05;72.05
20628;BME280;10473;42.734;24.258;2023-03-22T11:56:17;91648.38;;;10.97;73.31
20628;BME280;10473;42.734;24.258;2023-03-22T11:59:05;91643.44;;;10.92;71.61
20628;BME280;10473;42.734;24.258;2023-03-22T12:01:53;91640.41;;;10.90;71.38
20628;BME280;10473;42.734;24.258;2023-03-22T12:04:59;91650.59;;;10.84;72.32
20628;BME280;10473;42.734;24.258;2023-03-22T12:07:31;91636.94;;;10.82;73.30
20628;BME280;10473;42.734;24.258;2023-03-22T12:10:04;91638.88;;;10.82;73.49
20628;BME280;10473;42.734;24.258;2023-03-22T12:12:37;91638.81;;;10.78;73.54
20628;BME280;10473;42.734;24.258;2023-03-22T12:15:13;91644.91;;;10.86;72.77
20628;BME280;10473;42.734;24.258;2023-03-22T12:17:44;91642.16;;;10.65;72.74
20628;BME280;10473;42.734;24.258;2023-03-22T12:22:49;91636.13;;;10.64;73.03
20628;BME280;10473;42.734;24.258;2023-03-22T12:25:20;91630.78;;;10.61;73.56
20628;BME280;10473;42.734;24.258;2023-03-22T12:27:52;91635.38;;;10.64;72.23
20628;BME280;10473;42.734;24.258;2023-03-22T12:30:24;91631.53;;;10.54;72.56
20628;BME280;10473;42.734;24.258;2023-03-22T12:32:58;91631.94;;;10.60;72.46
20628;BME280;10473;42.734;24.258;2023-03-22T12:35:30;91634.94;;;10.55;72.79
20628;BME280;10473;42.734;24.258;2023-03-22T12:38:08;91630.41;;;10.55;73.63
20628;BME280;10473;42.734;24.258;2023-03-22T12:40:39;91628.00;;;10.33;73.93
20628;BME280;10473;42.734;24.258;2023-03-22T12:43:13;91631.78;;;10.32;73.55
20628;BME280;10473;42.734;24.258;2023-03-22T12:45:45;91622.72;;;10.36;74.17
20628;BME280;10473;42.734;24.258;2023-03-22T12:48:20;91627.66;;;10.38;73.60
20628;BME280;10473;42.734;24.258;2023-03-22T12:50:56;91626.50;;;10.32;73.54
20628;BME280;10473;42.734;24.258;2023-03-22T12:53:31;91627.59;;;10.27;73.79
20628;BME280;10473;42.734;24.258;2023-03-22T12:56:00;91631.03;;;10.35;72.92
20628;BME280;10473;42.734;24.258;2023-03-22T12:58:28;91628.25;;;10.14;73.48
20628;BME280;10473;42.734;24.258;2023-03-22T13:01:05;91627.22;;;10.29;73.37
20628;BME280;10473;42.734;24.258;2023-03-22T13:03:38;91627.69;;;10.45;72.58
20628;BME280;10473;42.734;24.258;2023-03-22T13:06:33;91628.84;;;10.51;73.72
20628;BME280;10473;42.734;24.258;2023-03-22T13:09:10;91630.88;;;10.75;74.25
20628;BME280;10473;42.734;24.258;2023-03-22T13:11:41;91633.53;;;10.78;72.32
20628;BME280;10473;42.734;24.258;2023-03-22T13:14:13;91638.50;;;10.87;71.64
20628;BME280;10473;42.734;24.258;2023-03-22T13:17:05;91630.91;;;10.82;70.06
20628;BME280;10473;42.734;24.258;2023-03-22T13:19:35;91631.66;;;10.86;70.33
20628;BME280;10473;42.734;24.258;2023-03-22T13:22:18;91636.88;;;10.65;71.68
20628;BME280;10473;42.734;24.258;2023-03-22T13:25:00;91637.72;;;10.86;71.84
20628;BME280;10473;42.734;24.258;2023-03-22T13:27:39;91637.78;;;10.93;71.75
20628;BME280;10473;42.734;24.258;2023-03-22T13:30:15;91628.34;;;11.03;71.50
20628;BME280;10473;42.734;24.258;2023-03-22T13:32:51;91635.50;;;10.99;72.44
20628;BME280;10473;42.734;24.258;2023-03-22T13:35:22;91631.75;;;11.03;72.33
20628;BME280;10473;42.734;24.258;2023-03-22T13:37:56;91634.78;;;11.09;71.34
20628;BME280;10473;42.734;24.258;2023-03-22T13:40:32;91638.50;;;10.90;71.82
20628;BME280;10473;42.734;24.258;2023-03-22T13:43:31;91632.50;;;10.97;71.44
20628;BME280;10473;42.734;24.258;2023-03-22T13:46:05;91639.25;;;10.87;70.45
20628;BME280;10473;42.734;24.258;2023-03-22T13:48:50;91630.91;;;10.82;71.04
20628;BME280;10473;42.734;24.258;2023-03-22T13:51:20;91633.44;;;10.61;72.23